Nearby METAR Reports

 

EGNT - Newcastle, United Kingdom
Distance from station: NNE 1mi, 2km
Updated: 14/08/2018 23:50
Mostly cloudy
Mostly cloudy
 Wind from WSW
Wind: WSW 5 mph , 7 km/h
Temperature: 17°C
Dew Point: 15°C
Humidity: 88%
Barometer: 1012 hPa
Clouds: Mostly cloudy
Visibility: 6 miles , 10 km
Cloud details: Mostly cloudy 518 m
2018/08/14 22:50 EGNT 142250Z 24004KT 190V260 9999 BKN017 17/15 Q1012
EGQM - Boulmer, United Kingdom
Distance from station: N 29mi, 47km
Updated: 14/08/2018 23:50
Mostly cloudy
Mostly cloudy
 Wind from SW
Wind: SW 12 mph , 19 km/h
Temperature: 17°C
Dew Point: 16°C
Humidity: 94%
Barometer: 1011 hPa
Clouds: Mostly cloudy
Visibility: 6 miles , 10 km
Cloud details: Few Clouds 884 m
Mostly cloudy 6706 m
2018/08/14 22:50 EGQM 142250Z AUTO 22010KT 9999 FEW029/// BKN220/// 17/16 Q1011
 
EGOM - Spadeadam, United Kingdom
Distance from station: W 34mi, 54km
Updated: 14/08/2018 23:50
Rain, Overcast
Rain, Overcast
 Wind from WSW
Wind: WSW 17 mph , 28 km/h
Temperature: 15°C
Dew Point: 15°C
Humidity: 100%
Barometer: 1012 hPa
Summary: Rain
Clouds: Overcast
Visibility: 2 miles , 4 km
Cloud details: Overcast 30 m
2018/08/14 22:50 EGOM 142250Z AUTO 25015KT 3700 RA OVC001/// 15/15 Q1012
EGNV - Tees-Side, United Kingdom
Distance from station: SSE 35mi, 57km
Updated: 14/08/2018 21:50
NOT Current
Mostly cloudy
Mostly cloudy
 Wind from SW
Wind: SW 14 mph , 22 km/h
Temperature: 17°C
Dew Point: 14°C
Humidity: 83%
Barometer: 1013 hPa
Clouds: Mostly cloudy
Visibility: 6 miles , 10 km
Cloud details: Few Clouds 457 m
Mostly cloudy 701 m
2018/08/14 20:50 EGNV 142050Z 23012KT 9999 FEW015 BKN023 17/14 Q1013
 
EGNC - Carlisle, United Kingdom
Distance from station: W 45mi, 72km
Updated: 14/08/2018 17:50
NOT Current
Light drizzle, Mist, Overcast
Light drizzle, Mist, Overcast
 Wind from WSW
Wind: WSW 14 mph , 22 km/h
Temperature: 16°C
Dew Point: 15°C
Humidity: 94%
Barometer: 1012 hPa
Summary: Light drizzle, Mist
Clouds: Overcast
Visibility: 3 miles , 5 km
Cloud details: Partly cloudy 152 m
Overcast 305 m
2018/08/14 16:50 EGNC 141650Z 24012KT 5000 -DZ BR SCT005 OVC010 16/15 Q1012
EGXE - Leeming Raf, United Kingdom
Distance from station: S 50mi, 81km
Updated: 14/08/2018 23:50
Overcast
Overcast
 Wind from S
Wind: S 12 mph , 19 km/h
Temperature: 19°C
Dew Point: 14°C
Humidity: 73%
Barometer: 1014 hPa
Clouds: Overcast
Visibility: 6 miles , 10 km
Cloud details: Overcast 549 m
2018/08/14 22:50 EGXE 142250Z AUTO 19010KT 9999 OVC018/// 19/14 Q1014
 
EGXZ - Topcliffe Raf, United Kingdom
Distance from station: SSE 57mi, 91km
Updated: 14/08/2018 23:50
Overcast
Overcast
 Wind from SSW
Wind: SSW 9 mph , 15 km/h
Temperature: 18°C
Dew Point: 15°C
Humidity: 83%
Barometer: 1014 hPa
Clouds: Overcast
Visibility: 6 miles , 10 km
Cloud details: Overcast 610 m
2018/08/14 22:50 EGXZ 142250Z AUTO 21008KT 9999 OVC020/// 18/15 Q1014
EGXU - Linton-On-Ouse R, United Kingdom
Distance from station: SSE 68mi, 110km
Updated: 14/08/2018 23:50
Overcast
Overcast
 Wind from SSW
Wind: SSW 5 mph , 7 km/h
Temperature: 19°C
Dew Point: 15°C
Humidity: 78%
Barometer: 1014 hPa
Clouds: Overcast
Visibility: 6 miles , 10 km
Cloud details: Overcast 701 m
2018/08/14 22:50 EGXU 142250Z AUTO 21004KT 9999 // OVC023/// 19/15 Q1014
 
EGNM - Leeds And Bradfo, United Kingdom
Distance from station: S 78mi, 126km
Updated: 14/08/2018 23:50
Mostly cloudy
Mostly cloudy
 Wind from SW
Wind: SW 9 mph , 15 km/h
Temperature: 18°C
Dew Point: 14°C
Humidity: 78%
Barometer: 1015 hPa
Clouds: Mostly cloudy
Visibility: 6 miles , 10 km
Cloud details: Mostly cloudy 610 m
2018/08/14 22:50 EGNM 142250Z 23008KT 180V260 9999 BKN020 18/14 Q1015
EGPH - Edinburgh Airpor, United Kingdom
Distance from station: NW 92mi, 148km
Updated: 14/08/2018 23:50
Mostly cloudy
Mostly cloudy
 Wind from WSW
Wind: WSW 7 mph , 11 km/h
Temperature: 16°C
Dew Point: 15°C
Humidity: 94%
Barometer: 1010 hPa
Clouds: Mostly cloudy
Visibility: 6 miles , 10 km
Cloud details: Partly cloudy 335 m
Mostly cloudy 823 m
2018/08/14 22:50 EGPH 142250Z 25006KT 9999 SCT011 BKN027 16/15 Q1010
 
EGXV - Leconfield (aut), United Kingdom
Distance from station: SE 93mi, 150km
Updated: 14/08/2018 23:50
Overcast
Overcast
 Wind from SW
Wind: SW 7 mph , 11 km/h
Temperature: 18°C
Dew Point: 14°C
Humidity: 78%
Barometer: 1014 hPa
Clouds: Overcast
Visibility: 6 miles , 10 km
Cloud details: Overcast 823 m
2018/08/14 22:50 EGXV 142250Z AUTO 22006KT 9999 OVC027/// 18/14 Q1014
EGNO - Wharton, United Kingdom
Distance from station: SSW 99mi, 159km
Updated: 14/08/2018 18:50
NOT Current
Mostly cloudy
Mostly cloudy
 Wind from WSW
Wind: WSW 10 mph , 17 km/h
Temperature: 19°C
Dew Point: 16°C
Humidity: 83%
Barometer: 1014 hPa
Clouds: Mostly cloudy
Visibility: 6 miles , 10 km
Cloud details: Mostly cloudy 823 m
2018/08/14 17:50 EGNO 141750Z 25009KT 9999 BKN027 19/16 Q1014
 
EGNH - Blackpool Airpor, United Kingdom
Distance from station: SSW 100mi, 161km
Updated: 14/08/2018 20:50
NOT Current
Mostly cloudy
Mostly cloudy
 Wind from SW
Wind: SW 17 mph , 28 km/h
Temperature: 19°C
Dew Point: 17°C
Humidity: 88%
Barometer: 1015 hPa
Clouds: Mostly cloudy
Visibility: 6 miles , 10 km
Cloud details: Mostly cloudy 792 m
2018/08/14 19:50 EGNH 141950Z 23015KT 9999 BKN026 19/17 Q1015